sensor_id;sensor_type;location;lat;lon;timestamp;pressure;altitude;pressure_sealevel;temperature;humidity
45872;BME280;32333;55.844;-3.210;2023-04-27T00:01:50;99716.60;;;2.78;100.00
45872;BME280;32333;55.844;-3.210;2023-04-27T00:04:17;99715.40;;;3.65;100.00
45872;BME280;32333;55.844;-3.210;2023-04-27T00:06:45;99715.47;;;3.06;100.00
45872;BME280;32333;55.844;-3.210;2023-04-27T00:09:12;99717.12;;;3.24;100.00
45872;BME280;32333;55.844;-3.210;2023-04-27T00:11:40;99711.48;;;3.79;100.00
45872;BME280;32333;55.844;-3.210;2023-04-27T00:14:36;99715.72;;;2.80;100.00
45872;BME280;32333;55.844;-3.210;2023-04-27T00:17:03;99722.35;;;1.91;100.00
45872;BME280;32333;55.844;-3.210;2023-04-27T00:19:31;99727.71;;;2.93;100.00
45872;BME280;32333;55.844;-3.210;2023-04-27T00:21:58;99720.32;;;3.46;100.00
45872;BME280;32333;55.844;-3.210;2023-04-27T00:24:26;99719.48;;;3.60;100.00
45872;BME280;32333;55.844;-3.210;2023-04-27T00:26:53;99722.50;;;2.37;100.00
45872;BME280;32333;55.844;-3.210;2023-04-27T00:29:21;99729.74;;;2.68;100.00
45872;BME280;32333;55.844;-3.210;2023-04-27T00:31:48;99729.03;;;3.25;100.00
45872;BME280;32333;55.844;-3.210;2023-04-27T00:34:16;99726.94;;;3.05;100.00
45872;BME280;32333;55.844;-3.210;2023-04-27T00:36:43;99718.32;;;4.57;100.00
45872;BME280;32333;55.844;-3.210;2023-04-27T00:39:11;99719.22;;;3.21;100.00
45872;BME280;32333;55.844;-3.210;2023-04-27T00:41:39;99714.92;;;3.33;100.00
45872;BME280;32333;55.844;-3.210;2023-04-27T00:44:36;99707.46;;;3.38;100.00
45872;BME280;32333;55.844;-3.210;2023-04-27T00:47:04;99705.74;;;2.11;100.00
45872;BME280;32333;55.844;-3.210;2023-04-27T00:49:32;99711.15;;;2.71;100.00
45872;BME280;32333;55.844;-3.210;2023-04-27T00:52:00;99708.70;;;2.47;100.00
45872;BME280;32333;55.844;-3.210;2023-04-27T00:54:28;99705.25;;;2.21;100.00
45872;BME280;32333;55.844;-3.210;2023-04-27T00:56:56;99704.75;;;2.25;100.00
45872;BME280;32333;55.844;-3.210;2023-04-27T00:59:24;99701.16;;;1.85;100.00
45872;BME280;32333;55.844;-3.210;2023-04-27T01:01:53;99698.34;;;2.06;100.00
45872;BME280;32333;55.844;-3.210;2023-04-27T01:04:21;99690.28;;;2.50;100.00
45872;BME280;32333;55.844;-3.210;2023-04-27T01:06:49;99676.12;;;3.47;100.00
45872;BME280;32333;55.844;-3.210;2023-04-27T01:09:17;99667.86;;;2.81;100.00
45872;BME280;32333;55.844;-3.210;2023-04-27T01:11:44;99660.98;;;3.82;100.00
45872;BME280;32333;55.844;-3.210;2023-04-27T01:14:36;99664.88;;;2.71;100.00
45872;BME280;32333;55.844;-3.210;2023-04-27T01:17:03;99661.43;;;1.94;100.00
45872;BME280;32333;55.844;-3.210;2023-04-27T01:19:31;99657.29;;;1.51;100.00
45872;BME280;32333;55.844;-3.210;2023-04-27T01:21:58;99650.44;;;1.49;100.00
45872;BME280;32333;55.844;-3.210;2023-04-27T01:24:26;99645.65;;;1.89;100.00
45872;BME280;32333;55.844;-3.210;2023-04-27T01:26:53;99641.25;;;3.59;100.00
45872;BME280;32333;55.844;-3.210;2023-04-27T01:29:21;99649.90;;;3.24;100.00
45872;BME280;32333;55.844;-3.210;2023-04-27T01:31:48;99646.75;;;2.07;100.00
45872;BME280;32333;55.844;-3.210;2023-04-27T01:34:16;99642.99;;;2.75;100.00
45872;BME280;32333;55.844;-3.210;2023-04-27T01:36:44;99631.44;;;4.44;100.00
45872;BME280;32333;55.844;-3.210;2023-04-27T01:39:11;99631.24;;;4.00;100.00
45872;BME280;32333;55.844;-3.210;2023-04-27T01:41:40;99640.59;;;2.19;100.00
45872;BME280;32333;55.844;-3.210;2023-04-27T01:44:36;99645.09;;;2.71;100.00
45872;BME280;32333;55.844;-3.210;2023-04-27T01:47:04;99644.91;;;3.19;100.00
45872;BME280;32333;55.844;-3.210;2023-04-27T01:49:31;99651.14;;;2.93;100.00
45872;BME280;32333;55.844;-3.210;2023-04-27T01:51:59;99647.88;;;3.40;100.00
45872;BME280;32333;55.844;-3.210;2023-04-27T01:54:27;99653.45;;;2.79;100.00
45872;BME280;32333;55.844;-3.210;2023-04-27T01:56:54;99652.06;;;3.35;100.00
45872;BME280;32333;55.844;-3.210;2023-04-27T01:59:21;99649.98;;;4.99;100.00
45872;BME280;32333;55.844;-3.210;2023-04-27T02:01:49;99652.52;;;3.91;100.00
45872;BME280;32333;55.844;-3.210;2023-04-27T02:04:17;99653.08;;;4.28;100.00
45872;BME280;32333;55.844;-3.210;2023-04-27T02:06:45;99656.58;;;2.78;100.00
45872;BME280;32333;55.844;-3.210;2023-04-27T02:09:12;99649.00;;;4.21;100.00
45872;BME280;32333;55.844;-3.210;2023-04-27T02:11:40;99648.33;;;3.59;100.00
45872;BME280;32333;55.844;-3.210;2023-04-27T02:14:36;99646.19;;;4.20;100.00
45872;BME280;32333;55.844;-3.210;2023-04-27T02:17:03;99641.72;;;4.74;100.00
45872;BME280;32333;55.844;-3.210;2023-04-27T02:19:31;99634.33;;;3.41;100.00
45872;BME280;32333;55.844;-3.210;2023-04-27T02:21:59;99627.36;;;4.33;100.00
45872;BME280;32333;55.844;-3.210;2023-04-27T02:24:27;99626.99;;;4.08;100.00
45872;BME280;32333;55.844;-3.210;2023-04-27T02:26:54;99634.18;;;2.76;100.00
45872;BME280;32333;55.844;-3.210;2023-04-27T02:29:22;99636.77;;;3.95;100.00
45872;BME280;32333;55.844;-3.210;2023-04-27T02:31:50;99648.73;;;3.22;100.00
45872;BME280;32333;55.844;-3.210;2023-04-27T02:34:18;99640.52;;;3.64;100.00
45872;BME280;32333;55.844;-3.210;2023-04-27T02:36:45;99639.63;;;3.08;100.00
45872;BME280;32333;55.844;-3.210;2023-04-27T02:39:14;99639.75;;;2.97;100.00
45872;BME280;32333;55.844;-3.210;2023-04-27T02:41:41;99640.92;;;2.84;100.00
45872;BME280;32333;55.844;-3.210;2023-04-27T02:44:36;99631.57;;;3.82;100.00
45872;BME280;32333;55.844;-3.210;2023-04-27T02:47:04;99628.73;;;3.23;100.00
45872;BME280;32333;55.844;-3.210;2023-04-27T02:49:31;99628.23;;;4.18;100.00
45872;BME280;32333;55.844;-3.210;2023-04-27T02:52:00;99622.61;;;3.73;100.00
45872;BME280;32333;55.844;-3.210;2023-04-27T02:54:27;99622.51;;;3.81;100.00
45872;BME280;32333;55.844;-3.210;2023-04-27T02:56:55;99623.62;;;4.11;100.00
45872;BME280;32333;55.844;-3.210;2023-04-27T02:59:23;99629.19;;;4.45;100.00
45872;BME280;32333;55.844;-3.210;2023-04-27T03:01:51;99635.52;;;0.65;100.00
45872;BME280;32333;55.844;-3.210;2023-04-27T03:04:19;99635.01;;;2.55;100.00
45872;BME280;32333;55.844;-3.210;2023-04-27T03:06:46;99625.69;;;3.50;100.00
45872;BME280;32333;55.844;-3.210;2023-04-27T03:09:15;99626.05;;;3.96;100.00
45872;BME280;32333;55.844;-3.210;2023-04-27T03:11:42;99622.56;;;3.54;100.00
45872;BME280;32333;55.844;-3.210;2023-04-27T03:14:36;99622.34;;;4.68;100.00
45872;BME280;32333;55.844;-3.210;2023-04-27T03:17:03;99620.33;;;4.45;100.00
45872;BME280;32333;55.844;-3.210;2023-04-27T03:19:31;99621.44;;;4.58;100.00
45872;BME280;32333;55.844;-3.210;2023-04-27T03:22:00;99614.68;;;5.80;100.00
45872;BME280;32333;55.844;-3.210;2023-04-27T03:24:27;99613.48;;;5.32;100.00
45872;BME280;32333;55.844;-3.210;2023-04-27T03:26:54;99617.40;;;4.56;100.00
45872;BME280;32333;55.844;-3.210;2023-04-27T03:29:22;99617.25;;;4.20;100.00
45872;BME280;32333;55.844;-3.210;2023-04-27T03:31:50;99612.71;;;5.85;100.00
45872;BME280;32333;55.844;-3.210;2023-04-27T03:34:17;99608.47;;;6.22;98.67
45872;BME280;32333;55.844;-3.210;2023-04-27T03:36:45;99609.35;;;5.31;100.00
45872;BME280;32333;55.844;-3.210;2023-04-27T03:39:13;99611.65;;;4.68;100.00
45872;BME280;32333;55.844;-3.210;2023-04-27T03:41:41;99609.91;;;3.11;100.00
45872;BME280;32333;55.844;-3.210;2023-04-27T03:44:36;99610.45;;;4.09;100.00
45872;BME280;32333;55.844;-3.210;2023-04-27T03:47:04;99610.86;;;5.78;100.00
45872;BME280;32333;55.844;-3.210;2023-04-27T03:49:31;99608.58;;;5.17;100.00
45872;BME280;32333;55.844;-3.210;2023-04-27T03:52:00;99607.47;;;6.02;98.86
45872;BME280;32333;55.844;-3.210;2023-04-27T03:54:27;99602.59;;;5.47;99.19
45872;BME280;32333;55.844;-3.210;2023-04-27T03:56:55;99605.67;;;5.90;97.28
45872;BME280;32333;55.844;-3.210;2023-04-27T03:59:22;99603.09;;;4.96;99.22
45872;BME280;32333;55.844;-3.210;2023-04-27T04:01:50;99603.87;;;5.65;100.00
45872;BME280;32333;55.844;-3.210;2023-04-27T04:04:17;99596.22;;;5.35;100.00
45872;BME280;32333;55.844;-3.210;2023-04-27T04:06:45;99594.78;;;6.75;93.66
45872;BME280;32333;55.844;-3.210;2023-04-27T04:09:13;99582.87;;;5.99;96.20
45872;BME280;32333;55.844;-3.210;2023-04-27T04:11:41;99583.00;;;5.61;97.96
45872;BME280;32333;55.844;-3.210;2023-04-27T04:14:35;99584.80;;;4.81;100.00
45872;BME280;32333;55.844;-3.210;2023-04-27T04:17:02;99581.96;;;6.31;95.65
45872;BME280;32333;55.844;-3.210;2023-04-27T04:19:30;99577.10;;;5.92;93.86
45872;BME280;32333;55.844;-3.210;2023-04-27T04:21:58;99575.70;;;4.51;98.23
45872;BME280;32333;55.844;-3.210;2023-04-27T04:24:26;99575.07;;;6.28;93.20
45872;BME280;32333;55.844;-3.210;2023-04-27T04:26:53;99573.12;;;5.79;94.36
45872;BME280;32333;55.844;-3.210;2023-04-27T04:29:21;99568.09;;;6.95;90.39
45872;BME280;32333;55.844;-3.210;2023-04-27T04:31:49;99568.23;;;6.21;93.58
45872;BME280;32333;55.844;-3.210;2023-04-27T04:34:16;99564.23;;;6.27;92.32
45872;BME280;32333;55.844;-3.210;2023-04-27T04:36:43;99563.59;;;7.10;89.27
45872;BME280;32333;55.844;-3.210;2023-04-27T04:39:12;99564.02;;;6.36;92.22
45872;BME280;32333;55.844;-3.210;2023-04-27T04:41:39;99562.18;;;6.19;92.43
45872;BME280;32333;55.844;-3.210;2023-04-27T04:44:36;99558.65;;;5.79;93.71
45872;BME280;32333;55.844;-3.210;2023-04-27T04:47:03;99555.53;;;5.66;94.54
45872;BME280;32333;55.844;-3.210;2023-04-27T04:49:31;99555.19;;;6.89;88.54
45872;BME280;32333;55.844;-3.210;2023-04-27T04:51:59;99553.74;;;6.55;90.09
45872;BME280;32333;55.844;-3.210;2023-04-27T04:54:27;99554.43;;;6.39;89.28
45872;BME280;32333;55.844;-3.210;2023-04-27T04:56:54;99549.66;;;6.87;89.31
45872;BME280;32333;55.844;-3.210;2023-04-27T04:59:21;99549.61;;;6.03;91.19
45872;BME280;32333;55.844;-3.210;2023-04-27T05:01:49;99545.71;;;6.88;89.91
45872;BME280;32333;55.844;-3.210;2023-04-27T05:04:17;99544.22;;;6.79;88.94
45872;BME280;32333;55.844;-3.210;2023-04-27T05:06:44;99540.65;;;4.94;95.94
45872;BME280;32333;55.844;-3.210;2023-04-27T05:09:13;99539.34;;;4.88;100.00
45872;BME280;32333;55.844;-3.210;2023-04-27T05:11:40;99542.32;;;5.16;99.41
45872;BME280;32333;55.844;-3.210;2023-04-27T05:14:35;99543.04;;;4.74;100.00
45872;BME280;32333;55.844;-3.210;2023-04-27T05:17:03;99543.35;;;5.10;100.00
45872;BME280;32333;55.844;-3.210;2023-04-27T05:19:30;99535.75;;;5.47;98.45
45872;BME280;32333;55.844;-3.210;2023-04-27T05:22:00;99544.17;;;5.70;99.13
45872;BME280;32333;55.844;-3.210;2023-04-27T05:24:28;99543.86;;;6.52;94.11
45872;BME280;32333;55.844;-3.210;2023-04-27T05:26:55;99546.09;;;6.80;95.18
45872;BME280;32333;55.844;-3.210;2023-04-27T05:29:24;99544.56;;;5.90;93.91
45872;BME280;32333;55.844;-3.210;2023-04-27T05:31:53;99539.61;;;6.86;91.31
45872;BME280;32333;55.844;-3.210;2023-04-27T05:34:21;99538.03;;;5.23;96.13
45872;BME280;32333;55.844;-3.210;2023-04-27T05:36:49;99539.06;;;6.17;94.77
45872;BME280;32333;55.844;-3.210;2023-04-27T05:39:16;99536.66;;;6.30;94.92
45872;BME280;32333;55.844;-3.210;2023-04-27T05:41:44;99535.80;;;6.21;92.04
45872;BME280;32333;55.844;-3.210;2023-04-27T05:44:36;99535.14;;;5.94;97.34
45872;BME280;32333;55.844;-3.210;2023-04-27T05:47:03;99534.16;;;6.09;96.86
45872;BME280;32333;55.844;-3.210;2023-04-27T05:49:31;99531.63;;;6.53;93.47
45872;BME280;32333;55.844;-3.210;2023-04-27T05:52:00;99531.58;;;6.24;92.75
45872;BME280;32333;55.844;-3.210;2023-04-27T05:54:28;99534.90;;;6.40;91.40
45872;BME280;32333;55.844;-3.210;2023-04-27T05:56:55;99535.87;;;5.47;98.32
45872;BME280;32333;55.844;-3.210;2023-04-27T05:59:24;99538.96;;;6.91;90.92
45872;BME280;32333;55.844;-3.210;2023-04-27T06:01:51;99535.86;;;6.34;89.20
45872;BME280;32333;55.844;-3.210;2023-04-27T06:04:18;99535.57;;;5.84;90.73
45872;BME280;32333;55.844;-3.210;2023-04-27T06:06:46;99534.45;;;6.32;92.17
45872;BME280;32333;55.844;-3.210;2023-04-27T06:09:14;99529.31;;;7.37;86.01
45872;BME280;32333;55.844;-3.210;2023-04-27T06:11:42;99529.21;;;7.25;87.92
45872;BME280;32333;55.844;-3.210;2023-04-27T06:14:36;99533.31;;;6.39;93.99
45872;BME280;32333;55.844;-3.210;2023-04-27T06:17:04;99527.62;;;6.44;90.48
45872;BME280;32333;55.844;-3.210;2023-04-27T06:19:31;99525.19;;;7.27;83.64
45872;BME280;32333;55.844;-3.210;2023-04-27T06:22:00;99524.23;;;8.09;83.65
45872;BME280;32333;55.844;-3.210;2023-04-27T06:24:27;99522.45;;;7.44;82.19
45872;BME280;32333;55.844;-3.210;2023-04-27T06:26:55;99521.68;;;7.96;82.86
45872;BME280;32333;55.844;-3.210;2023-04-27T06:29:22;99521.05;;;8.20;81.97
45872;BME280;32333;55.844;-3.210;2023-04-27T06:31:50;99528.52;;;6.16;96.14
45872;BME280;32333;55.844;-3.210;2023-04-27T06:34:17;99524.62;;;7.64;84.38
45872;BME280;32333;55.844;-3.210;2023-04-27T06:36:45;99530.82;;;6.10;93.48
45872;BME280;32333;55.844;-3.210;2023-04-27T06:39:13;99525.38;;;6.73;92.69
45872;BME280;32333;55.844;-3.210;2023-04-27T06:41:40;99519.17;;;7.33;89.27
45872;BME280;32333;55.844;-3.210;2023-04-27T06:44:36;99522.26;;;6.60;85.31
45872;BME280;32333;55.844;-3.210;2023-04-27T06:47:03;99518.39;;;7.06;86.14
45872;BME280;32333;55.844;-3.210;2023-04-27T06:49:31;99523.54;;;5.89;100.00
45872;BME280;32333;55.844;-3.210;2023-04-27T06:52:01;99521.19;;;7.19;88.87
45872;BME280;32333;55.844;-3.210;2023-04-27T06:54:28;99513.44;;;7.36;83.26
45872;BME280;32333;55.844;-3.210;2023-04-27T06:56:55;99519.26;;;6.93;84.93
45872;BME280;32333;55.844;-3.210;2023-04-27T06:59:24;99515.12;;;8.43;79.56
45872;BME280;32333;55.844;-3.210;2023-04-27T07:01:51;99519.38;;;7.52;84.44
45872;BME280;32333;55.844;-3.210;2023-04-27T07:04:19;99514.23;;;8.11;79.66
45872;BME280;32333;55.844;-3.210;2023-04-27T07:06:47;99512.88;;;7.45;78.82
45872;BME280;32333;55.844;-3.210;2023-04-27T07:09:15;99518.30;;;7.14;84.42
45872;BME280;32333;55.844;-3.210;2023-04-27T07:11:42;99515.16;;;6.97;84.01
45872;BME280;32333;55.844;-3.210;2023-04-27T07:14:36;99513.11;;;7.85;80.08
45872;BME280;32333;55.844;-3.210;2023-04-27T07:17:03;99511.03;;;6.99;82.26
45872;BME280;32333;55.844;-3.210;2023-04-27T07:19:32;99513.40;;;7.02;85.25
45872;BME280;32333;55.844;-3.210;2023-04-27T07:22:00;99514.35;;;7.59;82.06
45872;BME280;32333;55.844;-3.210;2023-04-27T07:24:27;99516.95;;;6.11;87.43
45872;BME280;32333;55.844;-3.210;2023-04-27T07:26:55;99515.34;;;7.14;83.46
45872;BME280;32333;55.844;-3.210;2023-04-27T07:29:23;99508.03;;;7.82;83.61
45872;BME280;32333;55.844;-3.210;2023-04-27T07:31:50;99514.30;;;6.06;90.49
45872;BME280;32333;55.844;-3.210;2023-04-27T07:34:18;99507.51;;;7.51;84.44
45872;BME280;32333;55.844;-3.210;2023-04-27T07:36:45;99509.64;;;7.41;82.60
45872;BME280;32333;55.844;-3.210;2023-04-27T07:39:13;99510.48;;;7.86;78.71
45872;BME280;32333;55.844;-3.210;2023-04-27T07:41:40;99512.70;;;8.48;79.06
45872;BME280;32333;55.844;-3.210;2023-04-27T07:44:36;99510.69;;;8.44;83.28
45872;BME280;32333;55.844;-3.210;2023-04-27T07:47:03;99505.89;;;8.04;83.19
45872;BME280;32333;55.844;-3.210;2023-04-27T07:49:30;99500.42;;;7.16;85.72
45872;BME280;32333;55.844;-3.210;2023-04-27T07:51:59;99501.08;;;8.29;85.45
45872;BME280;32333;55.844;-3.210;2023-04-27T07:54:26;99500.42;;;8.21;82.85
45872;BME280;32333;55.844;-3.210;2023-04-27T07:56:54;99496.91;;;8.14;84.42
45872;BME280;32333;55.844;-3.210;2023-04-27T07:59:22;99497.60;;;7.78;87.24
45872;BME280;32333;55.844;-3.210;2023-04-27T08:01:49;99498.71;;;8.67;82.34
45872;BME280;32333;55.844;-3.210;2023-04-27T08:04:16;99497.00;;;8.84;83.34
45872;BME280;32333;55.844;-3.210;2023-04-27T08:06:44;99493.49;;;8.38;83.40
45872;BME280;32333;55.844;-3.210;2023-04-27T08:09:12;99493.43;;;8.85;86.62
45872;BME280;32333;55.844;-3.210;2023-04-27T08:11:39;99492.77;;;8.64;86.14
45872;BME280;32333;55.844;-3.210;2023-04-27T08:14:35;99490.70;;;8.56;90.13
45872;BME280;32333;55.844;-3.210;2023-04-27T08:17:02;99487.56;;;8.22;88.60
45872;BME280;32333;55.844;-3.210;2023-04-27T08:19:31;99486.74;;;8.75;85.44
45872;BME280;32333;55.844;-3.210;2023-04-27T08:21:58;99481.16;;;8.80;83.67
45872;BME280;32333;55.844;-3.210;2023-04-27T08:24:25;99482.14;;;9.34;85.39
45872;BME280;32333;55.844;-3.210;2023-04-27T08:26:53;99485.31;;;9.13;86.36
45872;BME280;32333;55.844;-3.210;2023-04-27T08:29:20;99481.60;;;9.69;81.05
45872;BME280;32333;55.844;-3.210;2023-04-27T08:31:47;99479.05;;;9.13;77.48
45872;BME280;32333;55.844;-3.210;2023-04-27T08:34:15;99478.44;;;10.16;76.00
45872;BME280;32333;55.844;-3.210;2023-04-27T08:36:43;99477.45;;;9.86;75.01
45872;BME280;32333;55.844;-3.210;2023-04-27T08:39:10;99471.09;;;10.63;75.97
45872;BME280;32333;55.844;-3.210;2023-04-27T08:41:41;99467.24;;;9.14;78.06
45872;BME280;32333;55.844;-3.210;2023-04-27T08:44:37;99466.16;;;8.42;85.98
45872;BME280;32333;55.844;-3.210;2023-04-27T08:47:05;99461.97;;;9.64;80.96
45872;BME280;32333;55.844;-3.210;2023-04-27T08:49:32;99461.32;;;10.39;78.35
45872;BME280;32333;55.844;-3.210;2023-04-27T08:52:00;99460.81;;;10.69;77.11
45872;BME280;32333;55.844;-3.210;2023-04-27T08:54:28;99458.00;;;10.12;79.72
45872;BME280;32333;55.844;-3.210;2023-04-27T08:56:55;99451.84;;;10.82;79.28
45872;BME280;32333;55.844;-3.210;2023-04-27T08:59:23;99446.33;;;11.29;73.91
45872;BME280;32333;55.844;-3.210;2023-04-27T09:01:51;99447.12;;;11.49;78.68
45872;BME280;32333;55.844;-3.210;2023-04-27T09:04:18;99445.20;;;10.61;77.28
45872;BME280;32333;55.844;-3.210;2023-04-27T09:06:46;99445.21;;;9.64;81.12
45872;BME280;32333;55.844;-3.210;2023-04-27T09:09:21;99443.26;;;10.07;81.99
45872;BME280;32333;55.844;-3.210;2023-04-27T09:11:49;99437.73;;;9.42;83.89
45872;BME280;32333;55.844;-3.210;2023-04-27T09:14:36;99437.51;;;8.65;92.16
45872;BME280;32333;55.844;-3.210;2023-04-27T09:17:03;99435.11;;;9.01;91.50
45872;BME280;32333;55.844;-3.210;2023-04-27T09:19:30;99430.21;;;8.95;89.51
45872;BME280;32333;55.844;-3.210;2023-04-27T09:22:07;99434.46;;;7.79;100.00
45872;BME280;32333;55.844;-3.210;2023-04-27T09:24:34;99424.98;;;8.73;97.17
45872;BME280;32333;55.844;-3.210;2023-04-27T09:27:03;99428.57;;;8.81;87.69
45872;BME280;32333;55.844;-3.210;2023-04-27T09:29:32;99432.21;;;8.92;93.52
45872;BME280;32333;55.844;-3.210;2023-04-27T09:32:00;99433.75;;;10.06;88.11
45872;BME280;32333;55.844;-3.210;2023-04-27T09:34:37;99431.97;;;8.15;88.44
45872;BME280;32333;55.844;-3.210;2023-04-27T09:37:05;99431.03;;;8.05;91.58
45872;BME280;32333;55.844;-3.210;2023-04-27T09:39:34;99428.36;;;7.75;100.00
45872;BME280;32333;55.844;-3.210;2023-04-27T09:44:35;99428.27;;;7.84;100.00
45872;BME280;32333;55.844;-3.210;2023-04-27T09:47:04;99427.04;;;7.39;100.00
45872;BME280;32333;55.844;-3.210;2023-04-27T09:49:33;99424.96;;;7.62;100.00
45872;BME280;32333;55.844;-3.210;2023-04-27T09:52:01;99424.06;;;8.20;100.00
45872;BME280;32333;55.844;-3.210;2023-04-27T09:54:31;99426.17;;;8.39;95.43
45872;BME280;32333;55.844;-3.210;2023-04-27T09:57:11;99424.28;;;8.41;94.80
45872;BME280;32333;55.844;-3.210;2023-04-27T10:00:08;99426.98;;;7.62;100.00
45872;BME280;32333;55.844;-3.210;2023-04-27T10:02:47;99422.82;;;7.50;100.00
45872;BME280;32333;55.844;-3.210;2023-04-27T10:05:31;99424.60;;;7.91;100.00
45872;BME280;32333;55.844;-3.210;2023-04-27T10:08:03;99420.37;;;8.15;100.00
45872;BME280;32333;55.844;-3.210;2023-04-27T10:10:41;99420.99;;;8.53;100.00
45872;BME280;32333;55.844;-3.210;2023-04-27T10:14:36;99415.54;;;7.67;100.00
45872;BME280;32333;55.844;-3.210;2023-04-27T10:17:15;99414.81;;;7.82;100.00
45872;BME280;32333;55.844;-3.210;2023-04-27T10:19:53;99411.66;;;7.72;100.00
45872;BME280;32333;55.844;-3.210;2023-04-27T10:22:21;99412.76;;;7.43;100.00
45872;BME280;32333;55.844;-3.210;2023-04-27T10:24:49;99407.71;;;7.27;100.00
45872;BME280;32333;55.844;-3.210;2023-04-27T10:27:19;99407.98;;;5.86;100.00
45872;BME280;32333;55.844;-3.210;2023-04-27T10:29:47;99406.88;;;7.12;100.00
45872;BME280;32333;55.844;-3.210;2023-04-27T10:32:20;99403.55;;;7.95;100.00
45872;BME280;32333;55.844;-3.210;2023-04-27T10:34:48;99401.68;;;6.95;100.00
45872;BME280;32333;55.844;-3.210;2023-04-27T10:37:17;99401.61;;;9.00;100.00
45872;BME280;32333;55.844;-3.210;2023-04-27T10:39:45;99397.52;;;8.67;100.00
45872;BME280;32333;55.844;-3.210;2023-04-27T10:44:37;99393.88;;;7.72;100.00
45872;BME280;32333;55.844;-3.210;2023-04-27T10:47:14;99388.86;;;8.04;100.00
45872;BME280;32333;55.844;-3.210;2023-04-27T10:49:42;99391.83;;;7.47;100.00
45872;BME280;32333;55.844;-3.210;2023-04-27T10:52:09;99389.51;;;7.87;100.00
45872;BME280;32333;55.844;-3.210;2023-04-27T10:54:37;99383.90;;;7.19;100.00
45872;BME280;32333;55.844;-3.210;2023-04-27T10:57:05;99382.30;;;7.49;100.00
45872;BME280;32333;55.844;-3.210;2023-04-27T10:59:34;99371.28;;;8.90;100.00
45872;BME280;32333;55.844;-3.210;2023-04-27T11:02:02;99373.69;;;7.88;100.00
45872;BME280;32333;55.844;-3.210;2023-04-27T11:04:39;99369.82;;;8.32;100.00
45872;BME280;32333;55.844;-3.210;2023-04-27T11:07:08;99375.44;;;8.02;100.00
45872;BME280;32333;55.844;-3.210;2023-04-27T11:09:35;99371.06;;;6.35;100.00
45872;BME280;32333;55.844;-3.210;2023-04-27T11:14:36;99348.79;;;6.90;100.00
45872;BME280;32333;55.844;-3.210;2023-04-27T11:17:04;99354.69;;;6.72;100.00
45872;BME280;32333;55.844;-3.210;2023-04-27T11:19:32;99351.09;;;6.53;100.00
45872;BME280;32333;55.844;-3.210;2023-04-27T11:22:04;99352.59;;;7.37;100.00
45872;BME280;32333;55.844;-3.210;2023-04-27T11:24:32;99350.05;;;7.04;100.00
45872;BME280;32333;55.844;-3.210;2023-04-27T11:27:00;99345.46;;;6.81;100.00
45872;BME280;32333;55.844;-3.210;2023-04-27T11:29:39;99343.84;;;7.05;100.00
45872;BME280;32333;55.844;-3.210;2023-04-27T11:32:07;99337.19;;;5.82;100.00
45872;BME280;32333;55.844;-3.210;2023-04-27T11:34:34;99333.79;;;6.63;100.00
45872;BME280;32333;55.844;-3.210;2023-04-27T11:37:03;99328.79;;;6.66;100.00
45872;BME280;32333;55.844;-3.210;2023-04-27T11:39:33;99334.95;;;5.93;100.00
45872;BME280;32333;55.844;-3.210;2023-04-27T11:44:36;99325.34;;;6.88;100.00
45872;BME280;32333;55.844;-3.210;2023-04-27T11:47:06;99318.89;;;6.24;100.00
45872;BME280;32333;55.844;-3.210;2023-04-27T11:49:34;99321.81;;;7.57;100.00
45872;BME280;32333;55.844;-3.210;2023-04-27T11:52:02;99315.43;;;8.28;100.00
45872;BME280;32333;55.844;-3.210;2023-04-27T11:54:30;99312.00;;;7.40;100.00
45872;BME280;32333;55.844;-3.210;2023-04-27T11:57:04;99304.10;;;7.48;100.00
45872;BME280;32333;55.844;-3.210;2023-04-27T11:59:31;99305.54;;;7.82;100.00
45872;BME280;32333;55.844;-3.210;2023-04-27T12:02:00;99295.90;;;8.45;100.00
45872;BME280;32333;55.844;-3.210;2023-04-27T12:04:28;99296.61;;;7.84;100.00
45872;BME280;32333;55.844;-3.210;2023-04-27T12:06:56;99284.08;;;8.10;100.00
45872;BME280;32333;55.844;-3.210;2023-04-27T12:09:24;99288.05;;;7.65;100.00
45872;BME280;32333;55.844;-3.210;2023-04-27T12:11:51;99288.92;;;7.72;100.00
45872;BME280;32333;55.844;-3.210;2023-04-27T12:14:35;99289.31;;;8.68;100.00
45872;BME280;32333;55.844;-3.210;2023-04-27T12:17:02;99280.90;;;8.67;100.00
45872;BME280;32333;55.844;-3.210;2023-04-27T12:19:30;99279.89;;;8.02;100.00
45872;BME280;32333;55.844;-3.210;2023-04-27T12:21:58;99271.06;;;7.57;100.00
45872;BME280;32333;55.844;-3.210;2023-04-27T12:24:25;99272.14;;;7.78;100.00
45872;BME280;32333;55.844;-3.210;2023-04-27T12:26:53;99273.08;;;8.44;100.00
45872;BME280;32333;55.844;-3.210;2023-04-27T12:29:20;99271.18;;;8.40;100.00
45872;BME280;32333;55.844;-3.210;2023-04-27T12:31:48;99270.68;;;8.36;100.00
45872;BME280;32333;55.844;-3.210;2023-04-27T12:34:15;99269.79;;;8.07;100.00
45872;BME280;32333;55.844;-3.210;2023-04-27T12:36:43;99267.07;;;8.54;100.00
45872;BME280;32333;55.844;-3.210;2023-04-27T12:39:14;99268.65;;;8.75;100.00
45872;BME280;32333;55.844;-3.210;2023-04-27T12:41:42;99265.19;;;7.94;100.00
45872;BME280;32333;55.844;-3.210;2023-04-27T12:44:35;99262.13;;;8.44;100.00
45872;BME280;32333;55.844;-3.210;2023-04-27T12:47:02;99263.27;;;8.33;100.00
45872;BME280;32333;55.844;-3.210;2023-04-27T12:49:30;99262.63;;;9.12;100.00
45872;BME280;32333;55.844;-3.210;2023-04-27T12:51:58;99264.64;;;8.42;96.21
45872;BME280;32333;55.844;-3.210;2023-04-27T12:54:25;99260.83;;;8.26;100.00
45872;BME280;32333;55.844;-3.210;2023-04-27T12:56:53;99261.61;;;7.74;100.00
45872;BME280;32333;55.844;-3.210;2023-04-27T12:59:20;99256.31;;;8.06;100.00
45872;BME280;32333;55.844;-3.210;2023-04-27T13:01:47;99257.05;;;8.53;100.00
45872;BME280;32333;55.844;-3.210;2023-04-27T13:04:18;99252.23;;;8.76;100.00
45872;BME280;32333;55.844;-3.210;2023-04-27T13:06:47;99251.09;;;9.24;96.38
45872;BME280;32333;55.844;-3.210;2023-04-27T13:09:14;99248.79;;;9.03;97.92
45872;BME280;32333;55.844;-3.210;2023-04-27T13:11:41;99245.17;;;8.78;100.00
45872;BME280;32333;55.844;-3.210;2023-04-27T13:14:36;99240.43;;;8.87;100.00
45872;BME280;32333;55.844;-3.210;2023-04-27T13:17:03;99235.96;;;8.94;100.00
45872;BME280;32333;55.844;-3.210;2023-04-27T13:19:30;99237.54;;;8.64;100.00
45872;BME280;32333;55.844;-3.210;2023-04-27T13:21:59;99232.76;;;9.43;100.00